sensor_id;sensor_type;location;lat;lon;timestamp;temperature;humidity
69938;DHT22;57248;47.320;15.998;2022-12-18T00:01:05;-6.54;95.21
69938;DHT22;57248;47.320;15.998;2022-12-18T00:03:38;-6.72;95.42
69938;DHT22;57248;47.320;15.998;2022-12-18T00:06:03;-6.68;95.38
69938;DHT22;57248;47.320;15.998;2022-12-18T00:08:35;-6.64;95.08
69938;DHT22;57248;47.320;15.998;2022-12-18T00:11:09;-6.58;95.66
69938;DHT22;57248;47.320;15.998;2022-12-18T00:13:42;-6.64;95.25
69938;DHT22;57248;47.320;15.998;2022-12-18T00:16:17;-6.60;94.59
69938;DHT22;57248;47.320;15.998;2022-12-18T00:19:06;-6.68;94.41
69938;DHT22;57248;47.320;15.998;2022-12-18T00:21:46;-6.62;94.69
69938;DHT22;57248;47.320;15.998;2022-12-18T00:24:18;-6.74;94.46
69938;DHT22;57248;47.320;15.998;2022-12-18T00:26:51;-6.74;95.21
69938;DHT22;57248;47.320;15.998;2022-12-18T00:29:23;-6.74;94.87
69938;DHT22;57248;47.320;15.998;2022-12-18T00:31:55;-6.79;94.62
69938;DHT22;57248;47.320;15.998;2022-12-18T00:34:27;-6.74;96.03
69938;DHT22;57248;47.320;15.998;2022-12-18T00:36:59;-6.74;95.52
69938;DHT22;57248;47.320;15.998;2022-12-18T00:39:31;-6.75;95.62
69938;DHT22;57248;47.320;15.998;2022-12-18T00:42:03;-6.79;94.93
69938;DHT22;57248;47.320;15.998;2022-12-18T00:44:54;-6.88;94.78
69938;DHT22;57248;47.320;15.998;2022-12-18T00:47:26;-6.95;94.17
69938;DHT22;57248;47.320;15.998;2022-12-18T00:49:58;-6.95;94.36
69938;DHT22;57248;47.320;15.998;2022-12-18T00:52:30;-6.91;95.18
69938;DHT22;57248;47.320;15.998;2022-12-18T00:54:55;-6.95;95.45
69938;DHT22;57248;47.320;15.998;2022-12-18T00:57:27;-6.98;95.74
69938;DHT22;57248;47.320;15.998;2022-12-18T00:59:59;-7.05;94.93
69938;DHT22;57248;47.320;15.998;2022-12-18T01:02:31;-7.01;94.82
69938;DHT22;57248;47.320;15.998;2022-12-18T01:05:03;-7.16;95.17
69938;DHT22;57248;47.320;15.998;2022-12-18T01:07:36;-7.06;95.92
69938;DHT22;57248;47.320;15.998;2022-12-18T01:10:09;-7.12;95.48
69938;DHT22;57248;47.320;15.998;2022-12-18T01:12:42;-7.18;94.58
69938;DHT22;57248;47.320;15.998;2022-12-18T01:15:16;-7.18;94.54
69938;DHT22;57248;47.320;15.998;2022-12-18T01:17:48;-7.19;95.37
69938;DHT22;57248;47.320;15.998;2022-12-18T01:20:26;-7.23;94.90
69938;DHT22;57248;47.320;15.998;2022-12-18T01:22:59;-7.19;96.61
69938;DHT22;57248;47.320;15.998;2022-12-18T01:25:33;-7.16;97.01
69938;DHT22;57248;47.320;15.998;2022-12-18T01:28:08;-7.01;97.54
69938;DHT22;57248;47.320;15.998;2022-12-18T01:30:40;-6.95;97.19
69938;DHT22;57248;47.320;15.998;2022-12-18T01:33:12;-6.98;97.42
69938;DHT22;57248;47.320;15.998;2022-12-18T01:35:44;-6.87;97.44
69938;DHT22;57248;47.320;15.998;2022-12-18T01:38:16;-7.02;96.59
69938;DHT22;57248;47.320;15.998;2022-12-18T01:40:48;-7.16;95.69
69938;DHT22;57248;47.320;15.998;2022-12-18T01:43:20;-7.02;97.14
69938;DHT22;57248;47.320;15.998;2022-12-18T01:45:52;-7.03;97.29
69938;DHT22;57248;47.320;15.998;2022-12-18T01:48:24;-7.02;96.58
69938;DHT22;57248;47.320;15.998;2022-12-18T01:50:56;-7.16;96.72
69938;DHT22;57248;47.320;15.998;2022-12-18T01:53:23;-7.19;95.41
69938;DHT22;57248;47.320;15.998;2022-12-18T01:55:57;-7.16;95.43
69938;DHT22;57248;47.320;15.998;2022-12-18T01:59:04;-7.27;95.42
69938;DHT22;57248;47.320;15.998;2022-12-18T02:01:37;-7.29;95.33
69938;DHT22;57248;47.320;15.998;2022-12-18T02:04:21;-7.27;94.81
69938;DHT22;57248;47.320;15.998;2022-12-18T02:07:01;-7.37;94.18
69938;DHT22;57248;47.320;15.998;2022-12-18T02:10:43;-7.33;95.41
69938;DHT22;57248;47.320;15.998;2022-12-18T02:13:03;-7.36;95.90
69938;DHT22;57248;47.320;15.998;2022-12-18T02:18:42;-7.44;94.54
69938;DHT22;57248;47.320;15.998;2022-12-18T02:24:17;-7.47;95.26
69938;DHT22;57248;47.320;15.998;2022-12-18T02:26:58;-7.46;95.35
69938;DHT22;57248;47.320;15.998;2022-12-18T02:29:50;-7.40;95.81
69938;DHT22;57248;47.320;15.998;2022-12-18T02:32:26;-7.29;96.38
69938;DHT22;57248;47.320;15.998;2022-12-18T02:34:59;-7.27;96.83
69938;DHT22;57248;47.320;15.998;2022-12-18T02:37:35;-7.23;97.03
69938;DHT22;57248;47.320;15.998;2022-12-18T02:40:09;-7.36;95.86
69938;DHT22;57248;47.320;15.998;2022-12-18T02:42:42;-7.46;96.16
69938;DHT22;57248;47.320;15.998;2022-12-18T02:45:17;-7.46;95.84
69938;DHT22;57248;47.320;15.998;2022-12-18T02:47:46;-7.51;95.01
69938;DHT22;57248;47.320;15.998;2022-12-18T02:50:36;-7.53;95.64
69938;DHT22;57248;47.320;15.998;2022-12-18T02:56:09;-7.51;96.05
69938;DHT22;57248;47.320;15.998;2022-12-18T02:59:00;-7.58;96.33
69938;DHT22;57248;47.320;15.998;2022-12-18T03:02:07;-7.64;95.43
69938;DHT22;57248;47.320;15.998;2022-12-18T03:04:47;-7.61;96.00
69938;DHT22;57248;47.320;15.998;2022-12-18T03:07:27;-7.47;97.41
69938;DHT22;57248;47.320;15.998;2022-12-18T03:10:00;-7.48;96.98
69938;DHT22;57248;47.320;15.998;2022-12-18T03:12:38;-7.40;97.15
69938;DHT22;57248;47.320;15.998;2022-12-18T03:17:59;-7.66;95.52
69938;DHT22;57248;47.320;15.998;2022-12-18T03:20:42;-7.75;95.58
69938;DHT22;57248;47.320;15.998;2022-12-18T03:23:22;-7.84;95.38
69938;DHT22;57248;47.320;15.998;2022-12-18T03:25:58;-7.78;95.07
69938;DHT22;57248;47.320;15.998;2022-12-18T03:28:34;-7.78;95.89
69938;DHT22;57248;47.320;15.998;2022-12-18T03:31:11;-7.73;96.18
69938;DHT22;57248;47.320;15.998;2022-12-18T03:33:51;-7.70;96.68
69938;DHT22;57248;47.320;15.998;2022-12-18T03:36:31;-7.69;96.99
69938;DHT22;57248;47.320;15.998;2022-12-18T03:39:04;-7.69;96.28
69938;DHT22;57248;47.320;15.998;2022-12-18T03:41:52;-7.77;96.10
69938;DHT22;57248;47.320;15.998;2022-12-18T03:47:27;-7.88;95.68
69938;DHT22;57248;47.320;15.998;2022-12-18T03:50:21;-7.91;95.85
69938;DHT22;57248;47.320;15.998;2022-12-18T03:53:07;-7.73;98.02
69938;DHT22;57248;47.320;15.998;2022-12-18T03:55:44;-7.62;98.14
69938;DHT22;57248;47.320;15.998;2022-12-18T03:58:20;-7.61;97.73
69938;DHT22;57248;47.320;15.998;2022-12-18T04:01:13;-7.54;97.11
69938;DHT22;57248;47.320;15.998;2022-12-18T04:03:47;-7.67;97.15
69938;DHT22;57248;47.320;15.998;2022-12-18T04:06:21;-7.71;97.16
69938;DHT22;57248;47.320;15.998;2022-12-18T04:08:47;-7.69;97.05
69938;DHT22;57248;47.320;15.998;2022-12-18T04:11:24;-7.73;96.98
69938;DHT22;57248;47.320;15.998;2022-12-18T04:13:57;-7.78;96.40
69938;DHT22;57248;47.320;15.998;2022-12-18T04:16:29;-8.05;96.27
69938;DHT22;57248;47.320;15.998;2022-12-18T04:19:04;-8.03;96.68
69938;DHT22;57248;47.320;15.998;2022-12-18T04:21:40;-7.94;96.15
69938;DHT22;57248;47.320;15.998;2022-12-18T04:24:13;-7.99;95.68
69938;DHT22;57248;47.320;15.998;2022-12-18T04:27:02;-7.94;96.44
69938;DHT22;57248;47.320;15.998;2022-12-18T04:29:40;-7.99;95.53
69938;DHT22;57248;47.320;15.998;2022-12-18T04:32:14;-8.06;95.03
69938;DHT22;57248;47.320;15.998;2022-12-18T04:34:42;-7.97;95.53
69938;DHT22;57248;47.320;15.998;2022-12-18T04:37:14;-8.02;95.53
69938;DHT22;57248;47.320;15.998;2022-12-18T04:39:48;-8.08;95.81
69938;DHT22;57248;47.320;15.998;2022-12-18T04:42:27;-8.11;95.90
69938;DHT22;57248;47.320;15.998;2022-12-18T04:45:00;-7.10;99.99
69938;DHT22;57248;47.320;15.998;2022-12-18T04:47:32;-7.84;97.98
69938;DHT22;57248;47.320;15.998;2022-12-18T04:49:57;-8.05;96.23
69938;DHT22;57248;47.320;15.998;2022-12-18T04:52:33;-8.11;95.67
69938;DHT22;57248;47.320;15.998;2022-12-18T04:55:05;-8.21;95.71
69938;DHT22;57248;47.320;15.998;2022-12-18T04:57:37;-8.12;95.88
69938;DHT22;57248;47.320;15.998;2022-12-18T05:00:10;-8.25;95.27
69938;DHT22;57248;47.320;15.998;2022-12-18T05:02:42;-8.22;95.43
69938;DHT22;57248;47.320;15.998;2022-12-18T05:05:14;-8.21;96.25
69938;DHT22;57248;47.320;15.998;2022-12-18T05:07:46;-8.18;95.80
69938;DHT22;57248;47.320;15.998;2022-12-18T05:10:18;-8.16;96.69
69938;DHT22;57248;47.320;15.998;2022-12-18T05:12:50;-8.03;97.36
69938;DHT22;57248;47.320;15.998;2022-12-18T05:15:31;-8.13;96.83
69938;DHT22;57248;47.320;15.998;2022-12-18T05:18:04;-8.13;96.47
69938;DHT22;57248;47.320;15.998;2022-12-18T05:20:36;-8.05;97.36
69938;DHT22;57248;47.320;15.998;2022-12-18T05:23:15;-8.01;97.67
69938;DHT22;57248;47.320;15.998;2022-12-18T05:25:55;-8.03;97.24
69938;DHT22;57248;47.320;15.998;2022-12-18T05:28:28;-8.12;96.27
69938;DHT22;57248;47.320;15.998;2022-12-18T05:31:02;-7.97;98.75
69938;DHT22;57248;47.320;15.998;2022-12-18T05:33:35;-8.21;96.74
69938;DHT22;57248;47.320;15.998;2022-12-18T05:36:08;-8.23;97.82
69938;DHT22;57248;47.320;15.998;2022-12-18T05:38:40;-8.28;96.85
69938;DHT22;57248;47.320;15.998;2022-12-18T05:41:13;-8.26;96.18
69938;DHT22;57248;47.320;15.998;2022-12-18T05:43:45;-8.28;96.44
69938;DHT22;57248;47.320;15.998;2022-12-18T05:46:17;-8.30;96.51
69938;DHT22;57248;47.320;15.998;2022-12-18T05:48:50;-8.16;96.63
69938;DHT22;57248;47.320;15.998;2022-12-18T05:51:22;-8.29;95.84
69938;DHT22;57248;47.320;15.998;2022-12-18T05:53:54;-8.30;96.01
69938;DHT22;57248;47.320;15.998;2022-12-18T05:56:26;-8.29;96.95
69938;DHT22;57248;47.320;15.998;2022-12-18T05:58:58;-8.39;95.84
69938;DHT22;57248;47.320;15.998;2022-12-18T06:01:30;-8.46;95.36
69938;DHT22;57248;47.320;15.998;2022-12-18T06:04:02;-8.52;95.27
69938;DHT22;57248;47.320;15.998;2022-12-18T06:06:34;-8.46;95.91
69938;DHT22;57248;47.320;15.998;2022-12-18T06:09:06;-8.47;94.99
69938;DHT22;57248;47.320;15.998;2022-12-18T06:11:41;-8.56;94.78
69938;DHT22;57248;47.320;15.998;2022-12-18T06:14:13;-8.52;95.62
69938;DHT22;57248;47.320;15.998;2022-12-18T06:16:38;-8.52;96.41
69938;DHT22;57248;47.320;15.998;2022-12-18T06:19:15;-8.37;96.57
69938;DHT22;57248;47.320;15.998;2022-12-18T06:21:48;-8.44;95.91
69938;DHT22;57248;47.320;15.998;2022-12-18T06:24:21;-8.54;95.79
69938;DHT22;57248;47.320;15.998;2022-12-18T06:26:46;-8.47;96.78
69938;DHT22;57248;47.320;15.998;2022-12-18T06:29:18;-8.49;96.00
69938;DHT22;57248;47.320;15.998;2022-12-18T06:31:50;-8.52;96.25
69938;DHT22;57248;47.320;15.998;2022-12-18T06:34:22;-8.60;95.10
69938;DHT22;57248;47.320;15.998;2022-12-18T06:36:47;-8.64;95.48
69938;DHT22;57248;47.320;15.998;2022-12-18T06:39:19;-8.57;96.01
69938;DHT22;57248;47.320;15.998;2022-12-18T06:41:51;-8.50;95.55
69938;DHT22;57248;47.320;15.998;2022-12-18T06:44:23;-8.43;96.33
69938;DHT22;57248;47.320;15.998;2022-12-18T06:46:55;-8.40;95.79
69938;DHT22;57248;47.320;15.998;2022-12-18T06:49:27;-8.40;95.74
69938;DHT22;57248;47.320;15.998;2022-12-18T06:52:00;-8.47;95.64
69938;DHT22;57248;47.320;15.998;2022-12-18T06:54:32;-8.67;96.18
69938;DHT22;57248;47.320;15.998;2022-12-18T06:57:04;-8.58;95.88
69938;DHT22;57248;47.320;15.998;2022-12-18T06:59:36;-8.47;95.48
69938;DHT22;57248;47.320;15.998;2022-12-18T07:02:11;-8.43;96.00
69938;DHT22;57248;47.320;15.998;2022-12-18T07:04:43;-8.28;96.76
69938;DHT22;57248;47.320;15.998;2022-12-18T07:07:15;-8.25;96.26
69938;DHT22;57248;47.320;15.998;2022-12-18T07:09:47;-8.40;95.15
69938;DHT22;57248;47.320;15.998;2022-12-18T07:12:21;-8.25;96.51
69938;DHT22;57248;47.320;15.998;2022-12-18T07:14:53;-8.19;95.90
69938;DHT22;57248;47.320;15.998;2022-12-18T07:17:25;-8.11;95.62
69938;DHT22;57248;47.320;15.998;2022-12-18T07:19:57;-7.99;95.62
69938;DHT22;57248;47.320;15.998;2022-12-18T07:22:29;-7.75;94.78
69938;DHT22;57248;47.320;15.998;2022-12-18T07:25:01;-7.54;94.02
69938;DHT22;57248;47.320;15.998;2022-12-18T07:27:33;-7.16;93.49
69938;DHT22;57248;47.320;15.998;2022-12-18T07:30:05;-7.08;91.82
69938;DHT22;57248;47.320;15.998;2022-12-18T07:32:31;-6.93;91.75
69938;DHT22;57248;47.320;15.998;2022-12-18T07:35:03;-7.32;92.68
69938;DHT22;57248;47.320;15.998;2022-12-18T07:37:35;-7.24;93.73
69938;DHT22;57248;47.320;15.998;2022-12-18T07:40:07;-7.23;93.56
69938;DHT22;57248;47.320;15.998;2022-12-18T07:42:40;-7.19;92.24
69938;DHT22;57248;47.320;15.998;2022-12-18T07:45:12;-7.15;92.92
69938;DHT22;57248;47.320;15.998;2022-12-18T07:47:44;-6.85;93.04
69938;DHT22;57248;47.320;15.998;2022-12-18T07:50:16;-6.74;91.94
69938;DHT22;57248;47.320;15.998;2022-12-18T07:52:48;-6.27;90.23
69938;DHT22;57248;47.320;15.998;2022-12-18T07:55:13;-5.41;89.62
69938;DHT22;57248;47.320;15.998;2022-12-18T07:57:45;-4.89;87.76
69938;DHT22;57248;47.320;15.998;2022-12-18T08:00:17;-4.83;86.62
69938;DHT22;57248;47.320;15.998;2022-12-18T08:02:49;-4.99;86.69
69938;DHT22;57248;47.320;15.998;2022-12-18T08:05:21;-4.76;87.93
69938;DHT22;57248;47.320;15.998;2022-12-18T08:07:53;-4.72;87.42
69938;DHT22;57248;47.320;15.998;2022-12-18T08:10:26;-4.44;86.55
69938;DHT22;57248;47.320;15.998;2022-12-18T08:12:58;-3.83;85.42
69938;DHT22;57248;47.320;15.998;2022-12-18T08:15:30;-3.12;83.33
69938;DHT22;57248;47.320;15.998;2022-12-18T08:18:02;-3.00;81.32
69938;DHT22;57248;47.320;15.998;2022-12-18T08:20:27;-3.47;83.47
69938;DHT22;57248;47.320;15.998;2022-12-18T08:23:01;-3.70;84.41
69938;DHT22;57248;47.320;15.998;2022-12-18T08:25:33;-3.44;84.32
69938;DHT22;57248;47.320;15.998;2022-12-18T08:28:06;-3.66;83.86
69938;DHT22;57248;47.320;15.998;2022-12-18T08:30:38;-3.79;85.19
69938;DHT22;57248;47.320;15.998;2022-12-18T08:33:10;-4.15;85.50
69938;DHT22;57248;47.320;15.998;2022-12-18T08:35:42;-3.69;85.00
69938;DHT22;57248;47.320;15.998;2022-12-18T08:38:14;-3.77;85.46
69938;DHT22;57248;47.320;15.998;2022-12-18T08:40:46;-3.65;84.74
69938;DHT22;57248;47.320;15.998;2022-12-18T08:43:11;-3.19;83.53
69938;DHT22;57248;47.320;15.998;2022-12-18T08:46:20;-2.60;82.25
69938;DHT22;57248;47.320;15.998;2022-12-18T08:48:53;-2.32;81.37
69938;DHT22;57248;47.320;15.998;2022-12-18T08:51:26;-2.77;81.97
69938;DHT22;57248;47.320;15.998;2022-12-18T08:53:58;-2.67;82.53
69938;DHT22;57248;47.320;15.998;2022-12-18T08:56:37;-2.96;84.29
69938;DHT22;57248;47.320;15.998;2022-12-18T08:59:09;-2.97;84.43
69938;DHT22;57248;47.320;15.998;2022-12-18T09:01:41;-2.91;83.68
69938;DHT22;57248;47.320;15.998;2022-12-18T09:04:13;-2.81;84.24
69938;DHT22;57248;47.320;15.998;2022-12-18T09:06:46;-2.94;83.71
69938;DHT22;57248;47.320;15.998;2022-12-18T09:09:22;-2.96;85.71
69938;DHT22;57248;47.320;15.998;2022-12-18T09:11:54;-3.01;85.14
69938;DHT22;57248;47.320;15.998;2022-12-18T09:14:27;-3.54;86.35
69938;DHT22;57248;47.320;15.998;2022-12-18T09:16:59;-3.22;86.68
69938;DHT22;57248;47.320;15.998;2022-12-18T09:19:32;-3.01;85.33
69938;DHT22;57248;47.320;15.998;2022-12-18T09:22:18;-2.44;84.02
69938;DHT22;57248;47.320;15.998;2022-12-18T09:24:50;-2.57;84.65
69938;DHT22;57248;47.320;15.998;2022-12-18T09:27:22;-2.87;85.18
69938;DHT22;57248;47.320;15.998;2022-12-18T09:29:54;-3.05;86.43
69938;DHT22;57248;47.320;15.998;2022-12-18T09:32:19;-3.28;87.42
69938;DHT22;57248;47.320;15.998;2022-12-18T09:34:52;-3.22;87.71
69938;DHT22;57248;47.320;15.998;2022-12-18T09:37:17;-3.19;88.48
69938;DHT22;57248;47.320;15.998;2022-12-18T09:39:49;-3.05;89.01
69938;DHT22;57248;47.320;15.998;2022-12-18T09:42:22;-3.27;89.24
69938;DHT22;57248;47.320;15.998;2022-12-18T09:44:54;-3.21;88.44
69938;DHT22;57248;47.320;15.998;2022-12-18T09:47:30;-3.01;89.02
69938;DHT22;57248;47.320;15.998;2022-12-18T09:50:32;-2.79;88.84
69938;DHT22;57248;47.320;15.998;2022-12-18T09:53:11;-2.70;89.43
69938;DHT22;57248;47.320;15.998;2022-12-18T09:55:46;-2.76;90.23
69938;DHT22;57248;47.320;15.998;2022-12-18T09:58:40;-2.83;91.02
69938;DHT22;57248;47.320;15.998;2022-12-18T10:01:21;-2.55;91.53
69938;DHT22;57248;47.320;15.998;2022-12-18T10:03:54;-2.44;91.26
69938;DHT22;57248;47.320;15.998;2022-12-18T10:06:36;-2.11;91.55
69938;DHT22;57248;47.320;15.998;2022-12-18T10:12:08;-1.70;90.98
69938;DHT22;57248;47.320;15.998;2022-12-18T10:15:01;-1.67;90.90
69938;DHT22;57248;47.320;15.998;2022-12-18T10:17:41;-1.76;91.53
69938;DHT22;57248;47.320;15.998;2022-12-18T10:21:09;-1.95;92.60
69938;DHT22;57248;47.320;15.998;2022-12-18T10:23:52;-1.84;92.38
69938;DHT22;57248;47.320;15.998;2022-12-18T10:26:33;-1.70;92.35
69938;DHT22;57248;47.320;15.998;2022-12-18T10:29:13;-1.68;92.17
69938;DHT22;57248;47.320;15.998;2022-12-18T10:31:46;-1.71;92.04
69938;DHT22;57248;47.320;15.998;2022-12-18T10:34:18;-1.57;91.78
69938;DHT22;57248;47.320;15.998;2022-12-18T10:36:50;-1.57;91.36
69938;DHT22;57248;47.320;15.998;2022-12-18T10:39:24;-1.52;90.58
69938;DHT22;57248;47.320;15.998;2022-12-18T10:42:17;-1.56;90.58
69938;DHT22;57248;47.320;15.998;2022-12-18T10:45:01;-1.53;90.28
69938;DHT22;57248;47.320;15.998;2022-12-18T10:47:34;-1.43;91.15
69938;DHT22;57248;47.320;15.998;2022-12-18T10:50:24;-1.36;89.78
69938;DHT22;57248;47.320;15.998;2022-12-18T10:53:00;-1.64;90.33
69938;DHT22;57248;47.320;15.998;2022-12-18T10:55:39;-1.02;88.74
69938;DHT22;57248;47.320;15.998;2022-12-18T10:58:29;-1.04;88.46
69938;DHT22;57248;47.320;15.998;2022-12-18T11:01:17;-1.16;88.33
69938;DHT22;57248;47.320;15.998;2022-12-18T11:06:27;-0.68;87.39
69938;DHT22;57248;47.320;15.998;2022-12-18T11:09:02;-0.95;87.71
69938;DHT22;57248;47.320;15.998;2022-12-18T11:11:35;-0.66;86.99
69938;DHT22;57248;47.320;15.998;2022-12-18T11:14:18;-0.77;86.05
69938;DHT22;57248;47.320;15.998;2022-12-18T11:16:54;-0.98;87.26
69938;DHT22;57248;47.320;15.998;2022-12-18T11:22:30;-1.22;86.09
69938;DHT22;57248;47.320;15.998;2022-12-18T11:27:51;-1.06;88.08
69938;DHT22;57248;47.320;15.998;2022-12-18T11:38:18;0.41;83.49
69938;DHT22;57248;47.320;15.998;2022-12-18T11:43:29;-0.01;83.49
69938;DHT22;57248;47.320;15.998;2022-12-18T11:46:52;-0.63;84.74
69938;DHT22;57248;47.320;15.998;2022-12-18T11:49:08;-0.43;84.70
69938;DHT22;57248;47.320;15.998;2022-12-18T11:52:00;-0.47;86.73
69938;DHT22;57248;47.320;15.998;2022-12-18T11:54:34;-1.18;87.57
69938;DHT22;57248;47.320;15.998;2022-12-18T12:06:01;-1.22;87.78
69938;DHT22;57248;47.320;15.998;2022-12-18T12:20:06;0.11;83.06
69938;DHT22;57248;47.320;15.998;2022-12-18T12:26:03;-0.46;85.15
69938;DHT22;57248;47.320;15.998;2022-12-18T12:40:02;-1.20;88.01
69938;DHT22;57248;47.320;15.998;2022-12-18T12:42:38;-0.94;87.92
69938;DHT22;57248;47.320;15.998;2022-12-18T12:45:46;-0.81;86.48
69938;DHT22;57248;47.320;15.998;2022-12-18T12:48:43;-0.98;86.72
69938;DHT22;57248;47.320;15.998;2022-12-18T12:51:21;-0.64;85.98
69938;DHT22;57248;47.320;15.998;2022-12-18T12:53:54;-0.97;86.60
69938;DHT22;57248;47.320;15.998;2022-12-18T13:02:01;-0.92;85.59
69938;DHT22;57248;47.320;15.998;2022-12-18T13:05:09;-0.34;84.51
69938;DHT22;57248;47.320;15.998;2022-12-18T13:07:57;-0.64;85.51
69938;DHT22;57248;47.320;15.998;2022-12-18T13:10:36;-0.94;85.19
69938;DHT22;57248;47.320;15.998;2022-12-18T13:13:12;-0.16;83.88
69938;DHT22;57248;47.320;15.998;2022-12-18T13:16:07;0.05;82.58
69938;DHT22;57248;47.320;15.998;2022-12-18T13:18:51;-0.85;85.62
69938;DHT22;57248;47.320;15.998;2022-12-18T13:21:53;-0.70;85.32
69938;DHT22;57248;47.320;15.998;2022-12-18T13:24:40;-0.66;84.12
69938;DHT22;57248;47.320;15.998;2022-12-18T13:36:01;-0.95;84.31
69938;DHT22;57248;47.320;15.998;2022-12-18T13:38:35;-1.05;84.92
69938;DHT22;57248;47.320;15.998;2022-12-18T13:43:54;-1.12;85.99
69938;DHT22;57248;47.320;15.998;2022-12-18T13:46:47;-0.83;84.65
69938;DHT22;57248;47.320;15.998;2022-12-18T13:49:41;-1.09;84.64
69938;DHT22;57248;47.320;15.998;2022-12-18T13:52:21;-1.28;87.11
69938;DHT22;57248;47.320;15.998;2022-12-18T13:54:57;-1.45;86.10
69938;DHT22;57248;47.320;15.998;2022-12-18T13:57:34;-1.52;87.05
69938;DHT22;57248;47.320;15.998;2022-12-18T14:02:54;-1.78;87.42
69938;DHT22;57248;47.320;15.998;2022-12-18T14:05:29;-1.95;87.77
69938;DHT22;57248;47.320;15.998;2022-12-18T14:08:12;-1.99;88.35
69938;DHT22;57248;47.320;15.998;2022-12-18T14:10:48;-1.80;88.16
69938;DHT22;57248;47.320;15.998;2022-12-18T14:13:31;-1.88;88.01
69938;DHT22;57248;47.320;15.998;2022-12-18T14:16:12;-2.24;88.98
69938;DHT22;57248;47.320;15.998;2022-12-18T14:18:53;-2.19;89.35
69938;DHT22;57248;47.320;15.998;2022-12-18T14:21:31;-2.29;89.30
69938;DHT22;57248;47.320;15.998;2022-12-18T14:24:17;-2.38;89.97
69938;DHT22;57248;47.320;15.998;2022-12-18T14:27:13;-2.38;89.76
69938;DHT22;57248;47.320;15.998;2022-12-18T14:29:52;-2.26;89.67
69938;DHT22;57248;47.320;15.998;2022-12-18T14:32:24;-2.34;89.64
69938;DHT22;57248;47.320;15.998;2022-12-18T14:34:56;-2.48;90.28
69938;DHT22;57248;47.320;15.998;2022-12-18T14:37:29;-2.46;90.76
69938;DHT22;57248;47.320;15.998;2022-12-18T14:40:12;-2.62;90.84
69938;DHT22;57248;47.320;15.998;2022-12-18T14:42:44;-2.57;90.86
69938;DHT22;57248;47.320;15.998;2022-12-18T14:48:22;-2.57;91.09
69938;DHT22;57248;47.320;15.998;2022-12-18T14:53:47;-2.69;91.73
69938;DHT22;57248;47.320;15.998;2022-12-18T14:56:27;-2.60;91.31
69938;DHT22;57248;47.320;15.998;2022-12-18T14:59:23;-2.65;92.06
69938;DHT22;57248;47.320;15.998;2022-12-18T15:04:40;-2.69;92.65
69938;DHT22;57248;47.320;15.998;2022-12-18T15:07:17;-2.67;92.71
69938;DHT22;57248;47.320;15.998;2022-12-18T15:12:42;-2.67;92.52
69938;DHT22;57248;47.320;15.998;2022-12-18T15:20:49;-2.73;92.73
69938;DHT22;57248;47.320;15.998;2022-12-18T15:26:17;-2.67;92.46
69938;DHT22;57248;47.320;15.998;2022-12-18T15:28:52;-2.73;93.21
69938;DHT22;57248;47.320;15.998;2022-12-18T15:31:31;-2.66;92.60
69938;DHT22;57248;47.320;15.998;2022-12-18T15:34:19;-2.73;93.26
69938;DHT22;57248;47.320;15.998;2022-12-18T15:36:52;-2.70;93.26
69938;DHT22;57248;47.320;15.998;2022-12-18T15:39:24;-2.70;92.99
69938;DHT22;57248;47.320;15.998;2022-12-18T15:41:57;-2.70;92.91
69938;DHT22;57248;47.320;15.998;2022-12-18T15:44:48;-2.69;92.98
69938;DHT22;57248;47.320;15.998;2022-12-18T15:47:20;-2.75;93.24
69938;DHT22;57248;47.320;15.998;2022-12-18T15:49:52;-2.72;93.07
69938;DHT22;57248;47.320;15.998;2022-12-18T15:52:24;-2.67;93.16
69938;DHT22;57248;47.320;15.998;2022-12-18T15:54:57;-2.72;92.75
69938;DHT22;57248;47.320;15.998;2022-12-18T15:57:48;-2.69;92.66
69938;DHT22;57248;47.320;15.998;2022-12-18T16:00:20;-2.66;92.87
69938;DHT22;57248;47.320;15.998;2022-12-18T16:02:52;-2.65;92.83
69938;DHT22;57248;47.320;15.998;2022-12-18T16:05:25;-2.65;93.00
69938;DHT22;57248;47.320;15.998;2022-12-18T16:07:52;-2.66;93.43
69938;DHT22;57248;47.320;15.998;2022-12-18T16:10:25;-2.63;93.49
69938;DHT22;57248;47.320;15.998;2022-12-18T16:12:57;-2.59;93.43
69938;DHT22;57248;47.320;15.998;2022-12-18T16:15:29;-2.59;93.41
69938;DHT22;57248;47.320;15.998;2022-12-18T16:18:01;-2.56;93.32
69938;DHT22;57248;47.320;15.998;2022-12-18T16:20:28;-2.56;93.71
69938;DHT22;57248;47.320;15.998;2022-12-18T16:23:00;-2.55;93.49
69938;DHT22;57248;47.320;15.998;2022-12-18T16:25:47;-2.52;92.89
69938;DHT22;57248;47.320;15.998;2022-12-18T16:28:19;-2.55;92.61
69938;DHT22;57248;47.320;15.998;2022-12-18T16:30:44;-2.50;92.54
69938;DHT22;57248;47.320;15.998;2022-12-18T16:33:17;-2.21;95.05
69938;DHT22;57248;47.320;15.998;2022-12-18T16:35:52;-2.39;92.26
69938;DHT22;57248;47.320;15.998;2022-12-18T16:38:25;-2.45;92.26
69938;DHT22;57248;47.320;15.998;2022-12-18T16:40:50;-2.44;92.72
69938;DHT22;57248;47.320;15.998;2022-12-18T16:43:41;-2.45;92.67
69938;DHT22;57248;47.320;15.998;2022-12-18T16:46:13;-2.49;93.93
69938;DHT22;57248;47.320;15.998;2022-12-18T16:48:45;-2.46;93.66
69938;DHT22;57248;47.320;15.998;2022-12-18T16:51:18;-2.46;93.64
69938;DHT22;57248;47.320;15.998;2022-12-18T16:53:52;-2.45;93.22
69938;DHT22;57248;47.320;15.998;2022-12-18T16:56:17;-2.42;92.78
69938;DHT22;57248;47.320;15.998;2022-12-18T16:58:53;-2.38;92.12
69938;DHT22;57248;47.320;15.998;2022-12-18T17:01:28;-2.36;92.43
69938;DHT22;57248;47.320;15.998;2022-12-18T17:04:05;-2.35;92.55
69938;DHT22;57248;47.320;15.998;2022-12-18T17:06:41;-2.36;93.16
69938;DHT22;57248;47.320;15.998;2022-12-18T17:09:14;-2.34;92.45
69938;DHT22;57248;47.320;15.998;2022-12-18T17:12:06;-2.38;93.11
69938;DHT22;57248;47.320;15.998;2022-12-18T17:14:38;-2.34;92.52
69938;DHT22;57248;47.320;15.998;2022-12-18T17:17:04;-2.36;93.21
69938;DHT22;57248;47.320;15.998;2022-12-18T17:19:36;-2.34;93.32
69938;DHT22;57248;47.320;15.998;2022-12-18T17:22:08;-2.32;93.25
69938;DHT22;57248;47.320;15.998;2022-12-18T17:24:54;-2.26;92.96
69938;DHT22;57248;47.320;15.998;2022-12-18T17:27:26;-2.24;92.72
69938;DHT22;57248;47.320;15.998;2022-12-18T17:29:58;-2.25;92.73
69938;DHT22;57248;47.320;15.998;2022-12-18T17:32:23;-2.22;92.58
69938;DHT22;57248;47.320;15.998;2022-12-18T17:34:56;-2.26;92.74
69938;DHT22;57248;47.320;15.998;2022-12-18T17:37:28;-2.29;93.06
69938;DHT22;57248;47.320;15.998;2022-12-18T17:40:00;-2.29;93.12
69938;DHT22;57248;47.320;15.998;2022-12-18T17:42:34;-2.19;92.85
69938;DHT22;57248;47.320;15.998;2022-12-18T17:45:06;-2.24;92.92
69938;DHT22;57248;47.320;15.998;2022-12-18T17:47:39;-2.22;92.86
69938;DHT22;57248;47.320;15.998;2022-12-18T17:50:11;-2.21;92.61
69938;DHT22;57248;47.320;15.998;2022-12-18T17:52:43;-2.15;92.80
69938;DHT22;57248;47.320;15.998;2022-12-18T17:55:15;-2.12;92.91
69938;DHT22;57248;47.320;15.998;2022-12-18T17:57:49;-2.07;92.56
69938;DHT22;57248;47.320;15.998;2022-12-18T18:00:21;-2.09;92.84